Nantucket — WBQ6814 — position and weather

sailwx.info

Track history (hours):
 
Tides and Currents Weather Stations Pressure Air Temp Water Temp Dewpoint Dewpoint Depression Visibility Wind Speed Wind Dir Waves Ship Positions

Nantucket

Owner: WOODS HOLE, MARTHA'S VINEYARD AND NANTUCKET STEAMSHIP AUTHORITY, WOODS HOLE, MA. More information available from US FCC via Universal Licensing System and Coast Guard Vessel Documentation Center.

Last reported at 2017-Jun-14 13:57 UTC. Time now 2017-Jun-28 17:37 UTC.
Position N 41°33' W 070°22'.
Warning: this ship's position is 14 days out of date.

Length 66 m; draft 4 m.

Type: Passenger vessel. MMSI: 367324580.

Date/timePositionNaut miles runAvg speedWind from/ knotsBaromVisibWave heightAir tempDewpointWater temp
2017-Jun-14 13:57N 41°33' W 070°22'512.0
2017-Jun-14 13:30N 41°37' W 070°17'2 4.2
2017-Jun-14 13:00N 41°39' W 070°17'1 1.6
2017-Jun-14 12:30N 41°38' W 070°16'23 1.1
2017-Jun-13 15:42N 41°17' W 070°06'0 0.0
2017-Jun-13 15:30N 41°17' W 070°06'4 7.3
2017-Jun-13 15:00N 41°21' W 070°07'4 1.2
2017-Jun-13 11:13N 41°25' W 070°10'8 1.0
2017-Jun-13 02:54N 41°17' W 070°06'0 0.0
2017-Jun-13 02:30N 41°17' W 070°06'1 1.9
2017-Jun-13 02:00N 41°18' W 070°06'713.5
2017-Jun-13 01:29N 41°25' W 070°09'1 0.4
2017-Jun-12 22:18N 41°26' W 070°10'413.3
2017-Jun-12 22:00N 41°22' W 070°08'2 0.2
2017-Jun-12 15:06N 41°20' W 070°07'114.2
2017-Jun-12 15:00N 41°21' W 070°08'3 0.8
2017-Jun-12 11:10N 41°24' W 070°09'213.5
2017-Jun-12 11:00N 41°22' W 070°08'3 0.2
2017-Jun-11 21:47N 41°20' W 070°07'3 9.9
2017-Jun-11 21:30N 41°17' W 070°06'0 0.0
2017-Jun-11 21:00N 41°17' W 070°06'4 7.7
2017-Jun-11 20:30N 41°21' W 070°08'7 0.7
2017-Jun-11 11:25N 41°27' W 070°10'513.1
2017-Jun-11 11:00N 41°22' W 070°08'8 0.6
2017-Jun-10 22:29N 41°29' W 070°12'714.4
2017-Jun-10 22:00N 41°23' W 070°08'611.9
2017-Jun-10 21:30N 41°17' W 070°06'19 2.5
2017-Jun-10 13:55N 41°34' W 070°17'5 3.9
2017-Jun-10 12:42N 41°39' W 070°17'0 0.9
2017-Jun-10 12:30N 41°39' W 070°17'4 8.8
2017-Jun-10 12:00N 41°35' W 070°16'1 0.1
2017-Jun-10 00:36N 41°35' W 070°17'112.1
2017-Jun-10 00:30N 41°36' W 070°17'3 5.4
2017-Jun-10 00:00N 41°39' W 070°17'0 0.1
2017-Jun-09 23:30N 41°39' W 070°17'6 1.4
2017-Jun-09 19:31N 41°33' W 070°16'011.7
2017-Jun-09 19:30N 41°33' W 070°16'5 9.2
2017-Jun-09 19:00N 41°38' W 070°16'1 2.0
2017-Jun-09 18:30N 41°39' W 070°17'1 2.1
2017-Jun-09 18:00N 41°38' W 070°16'4 1.0
2017-Jun-09 13:54N 41°34' W 070°16'4 9.2
2017-Jun-09 13:30N 41°38' W 070°16'1 2.6
2017-Jun-09 13:00N 41°39' W 070°17'1 1.6
2017-Jun-09 12:30N 41°38' W 070°16'5 9.0
2017-Jun-09 12:00N 41°34' W 070°16'1 0.1
2017-Jun-09 00:37N 41°35' W 070°17'112.1
2017-Jun-09 00:30N 41°36' W 070°17'3 6.1
2017-Jun-09 00:00N 41°39' W 070°17'0 0.1
2017-Jun-08 23:30N 41°39' W 070°17'5 1.3
2017-Jun-08 19:26N 41°34' W 070°16'4 9.0
2017-Jun-08 19:00N 41°38' W 070°16'1 2.6
2017-Jun-08 18:31N 41°39' W 070°17'1 1.5
2017-Jun-08 18:01N 41°38' W 070°16'3 0.6
2017-Jun-08 13:44N 41°36' W 070°17'2 9.1
2017-Jun-08 13:30N 41°38' W 070°16'1 2.7
2017-Jun-08 13:00N 41°39' W 070°17'1 1.1
2017-Jun-08 12:30N 41°39' W 070°16'4 8.4
2017-Jun-08 12:00N 41°34' W 070°16'713.4
2017-Jun-08 11:30N 41°29' W 070°12'713.7
2017-Jun-08 11:00N 41°22' W 070°08'5 7.2
2017-Jun-08 10:15N 41°17' W 070°06'0 0.0
2017-Jun-08 10:00N 41°17' W 070°06'  
2017-Jun-06 00:42N 41°34' W 070°16'211.7
2017-Jun-06 00:30N 41°36' W 070°17'3 5.4
2017-Jun-06 00:00N 41°39' W 070°17'0 0.8
2017-Jun-05 23:30N 41°39' W 070°16'4 1.1
2017-Jun-05 19:23N 41°34' W 070°17'4 9.2
2017-Jun-05 19:00N 41°38' W 070°16'1 2.4
2017-Jun-05 18:30N 41°39' W 070°17'1 2.3
2017-Jun-05 17:57N 41°38' W 070°16'2 0.6
2017-Jun-05 13:46N 41°36' W 070°17'2 9.1
2017-Jun-05 13:30N 41°38' W 070°16'1 2.4
2017-Jun-05 13:00N 41°39' W 070°17'  
Track history (hours):
 
Tides and Currents Weather Stations Pressure Air Temp Water Temp Dewpoint Dewpoint Depression Visibility Wind Speed Wind Dir Waves Ship Positions

Nantucket

Owner: WOODS HOLE, MARTHA'S VINEYARD AND NANTUCKET STEAMSHIP AUTHORITY, WOODS HOLE, MA. More information available from US FCC via Universal Licensing System and Coast Guard Vessel Documentation Center.

Last reported at 2017-Jun-14 13:57 UTC. Time now 2017-Jun-28 17:37 UTC.
Position N 41°33' W 070°22'.
Warning: this ship's position is 14 days out of date.

Length 66 m; draft 4 m.

Type: Passenger vessel. MMSI: 367324580.

Date/timePositionNaut miles runAvg speedWind from/ knotsBaromVisibWave heightAir tempDewpointWater temp
2017-Jun-14 13:57N 41°33' W 070°22'512.0
2017-Jun-14 13:30N 41°37' W 070°17'2 4.2
2017-Jun-14 13:00N 41°39' W 070°17'1 1.6
2017-Jun-14 12:30N 41°38' W 070°16'23 1.1
2017-Jun-13 15:42N 41°17' W 070°06'0 0.0
2017-Jun-13 15:30N 41°17' W 070°06'4 7.3
2017-Jun-13 15:00N 41°21' W 070°07'4 1.2
2017-Jun-13 11:13N 41°25' W 070°10'8 1.0
2017-Jun-13 02:54N 41°17' W 070°06'0 0.0
2017-Jun-13 02:30N 41°17' W 070°06'1 1.9
2017-Jun-13 02:00N 41°18' W 070°06'713.5
2017-Jun-13 01:29N 41°25' W 070°09'1 0.4
2017-Jun-12 22:18N 41°26' W 070°10'413.3
2017-Jun-12 22:00N 41°22' W 070°08'2 0.2
2017-Jun-12 15:06N 41°20' W 070°07'114.2
2017-Jun-12 15:00N 41°21' W 070°08'3 0.8
2017-Jun-12 11:10N 41°24' W 070°09'213.5
2017-Jun-12 11:00N 41°22' W 070°08'3 0.2
2017-Jun-11 21:47N 41°20' W 070°07'3 9.9
2017-Jun-11 21:30N 41°17' W 070°06'0 0.0
2017-Jun-11 21:00N 41°17' W 070°06'4 7.7
2017-Jun-11 20:30N 41°21' W 070°08'7 0.7
2017-Jun-11 11:25N 41°27' W 070°10'513.1
2017-Jun-11 11:00N 41°22' W 070°08'8 0.6
2017-Jun-10 22:29N 41°29' W 070°12'714.4
2017-Jun-10 22:00N 41°23' W 070°08'611.9
2017-Jun-10 21:30N 41°17' W 070°06'19 2.5
2017-Jun-10 13:55N 41°34' W 070°17'5 3.9
2017-Jun-10 12:42N 41°39' W 070°17'0 0.9
2017-Jun-10 12:30N 41°39' W 070°17'4 8.8
2017-Jun-10 12:00N 41°35' W 070°16'1 0.1
2017-Jun-10 00:36N 41°35' W 070°17'112.1
2017-Jun-10 00:30N 41°36' W 070°17'3 5.4
2017-Jun-10 00:00N 41°39' W 070°17'0 0.1
2017-Jun-09 23:30N 41°39' W 070°17'6 1.4
2017-Jun-09 19:31N 41°33' W 070°16'011.7
2017-Jun-09 19:30N 41°33' W 070°16'5 9.2
2017-Jun-09 19:00N 41°38' W 070°16'1 2.0
2017-Jun-09 18:30N 41°39' W 070°17'1 2.1
2017-Jun-09 18:00N 41°38' W 070°16'4 1.0
2017-Jun-09 13:54N 41°34' W 070°16'4 9.2
2017-Jun-09 13:30N 41°38' W 070°16'1 2.6
2017-Jun-09 13:00N 41°39' W 070°17'1 1.6
2017-Jun-09 12:30N 41°38' W 070°16'5 9.0
2017-Jun-09 12:00N 41°34' W 070°16'1 0.1
2017-Jun-09 00:37N 41°35' W 070°17'112.1
2017-Jun-09 00:30N 41°36' W 070°17'3 6.1
2017-Jun-09 00:00N 41°39' W 070°17'0 0.1
2017-Jun-08 23:30N 41°39' W 070°17'5 1.3
2017-Jun-08 19:26N 41°34' W 070°16'4 9.0
2017-Jun-08 19:00N 41°38' W 070°16'1 2.6
2017-Jun-08 18:31N 41°39' W 070°17'1 1.5
2017-Jun-08 18:01N 41°38' W 070°16'3 0.6
2017-Jun-08 13:44N 41°36' W 070°17'2 9.1
2017-Jun-08 13:30N 41°38' W 070°16'1 2.7
2017-Jun-08 13:00N 41°39' W 070°17'1 1.1
2017-Jun-08 12:30N 41°39' W 070°16'4 8.4
2017-Jun-08 12:00N 41°34' W 070°16'713.4
2017-Jun-08 11:30N 41°29' W 070°12'713.7
2017-Jun-08 11:00N 41°22' W 070°08'5 7.2
2017-Jun-08 10:15N 41°17' W 070°06'0 0.0
2017-Jun-08 10:00N 41°17' W 070°06'  
2017-Jun-06 00:42N 41°34' W 070°16'211.7
2017-Jun-06 00:30N 41°36' W 070°17'3 5.4
2017-Jun-06 00:00N 41°39' W 070°17'0 0.8
2017-Jun-05 23:30N 41°39' W 070°16'4 1.1
2017-Jun-05 19:23N 41°34' W 070°17'4 9.2
2017-Jun-05 19:00N 41°38' W 070°16'1 2.4
2017-Jun-05 18:30N 41°39' W 070°17'1 2.3
2017-Jun-05 17:57N 41°38' W 070°16'2 0.6
2017-Jun-05 13:46N 41°36' W 070°17'2 9.1
2017-Jun-05 13:30N 41°38' W 070°16'1 2.4
2017-Jun-05 13:00N 41°39' W 070°17'  

Dump ship's entire track history